Time;durP1;ratioP1;P1;durP2;ratioP2;P2;SDS_P1;SDS_P2;PMS_P1;PMS_P2;Temp;Humidity;BMP_temperature;BMP_pressure;BME280_temperature;BME280_humidity;BME280_pressure;Samples;Min_cycle;Max_cycle;Signal;HPM_P1;HPM_P2
2021/06/26 00:02:22;;;;;;;12.47;10.97;;;;;;;;;;5053492;28;20189;-58
2021/06/26 00:04:47;;;;;;;12.13;10.93;;;;;;;;;;5067964;28;20192;-58
2021/06/26 00:07:13;;;;;;;12.40;11.10;;;;;;;;;;5065649;28;20205;-58
2021/06/26 00:09:38;;;;;;;12.07;10.30;;;;;;;;;;5068194;28;20572;-57
2021/06/26 00:12:04;;;;;;;12.23;11.03;;;;;;;;;;5063934;28;20205;-58
2021/06/26 00:14:29;;;;;;;13.27;11.73;;;;;;;;;;5067844;28;20258;-57
2021/06/26 00:16:54;;;;;;;12.87;11.57;;;;;;;;;;5062183;28;20209;-58
2021/06/26 00:19:20;;;;;;;13.17;11.30;;;;;;;;;;5065013;28;20289;-58
2021/06/26 00:21:45;;;;;;;11.40;10.20;;;;;;;;;;5067774;28;20825;-58
2021/06/26 00:24:10;;;;;;;12.20;9.23;;;;;;;;;;5051626;28;20284;-58
2021/06/26 00:26:35;;;;;;;13.27;11.50;;;;;;;;;;5068721;28;20209;-58
2021/06/26 00:29:01;;;;;;;14.60;10.37;;;;;;;;;;5066064;28;20746;-59
2021/06/26 00:31:26;;;;;;;12.73;11.37;;;;;;;;;;5048460;28;20220;-58
2021/06/26 00:33:51;;;;;;;18.57;12.47;;;;;;;;;;5049931;28;20227;-58
2021/06/26 00:36:16;;;;;;;13.60;11.77;;;;;;;;;;5049171;28;20185;-58
2021/06/26 00:38:42;;;;;;;14.40;11.87;;;;;;;;;;5054316;28;20857;-56
2021/06/26 00:41:07;;;;;;;16.17;11.87;;;;;;;;;;5065645;28;20219;-57
2021/06/26 00:43:33;;;;;;;16.33;13.20;;;;;;;;;;5066321;28;20194;-57
2021/06/26 00:45:59;;;;;;;17.77;15.77;;;;;;;;;;5050250;28;20193;-58
2021/06/26 00:48:25;;;;;;;21.17;16.77;;;;;;;;;;5051511;28;20201;-58
2021/06/26 00:50:50;;;;;;;23.53;18.10;;;;;;;;;;5066163;28;20606;-58
2021/06/26 00:53:15;;;;;;;17.27;14.67;;;;;;;;;;5064259;28;20242;-57
2021/06/26 00:55:51;;;;;;;20.53;15.70;;;;;;;;;;5051583;28;21508;-58
2021/06/26 00:58:16;;;;;;;17.60;15.70;;;;;;;;;;5065888;28;20220;-59
2021/06/26 01:00:42;;;;;;;16.67;14.70;;;;;;;;;;5067118;28;20566;-59
2021/06/26 01:03:07;;;;;;;15.07;12.53;;;;;;;;;;5059313;28;20252;-58
2021/06/26 01:05:32;;;;;;;12.93;11.50;;;;;;;;;;5062912;28;20200;-57
2021/06/26 01:07:58;;;;;;;10.87;9.83;;;;;;;;;;5044997;28;20309;-55
2021/06/26 01:10:23;;;;;;;11.77;9.70;;;;;;;;;;5067816;28;20174;-59
2021/06/26 01:12:49;;;;;;;11.47;8.80;;;;;;;;;;5068932;28;20269;-57
2021/06/26 01:15:16;;;;;;;10.10;9.10;;;;;;;;;;5064319;28;20186;-58
2021/06/26 01:17:41;;;;;;;12.27;9.17;;;;;;;;;;5066863;28;20220;-58
2021/06/26 01:20:08;;;;;;;9.13;8.20;;;;;;;;;;5065515;28;20209;-57
2021/06/26 01:22:41;;;;;;;12.27;9.57;;;;;;;;;;5067893;28;20213;-58
2021/06/26 01:25:08;;;;;;;11.73;9.07;;;;;;;;;;5066186;28;20181;-58
2021/06/26 01:27:36;;;;;;;11.53;10.40;;;;;;;;;;5050489;28;20727;-58
2021/06/26 01:30:01;;;;;;;12.10;10.90;;;;;;;;;;5045319;28;20278;-58
2021/06/26 01:32:26;;;;;;;12.93;10.47;;;;;;;;;;5067728;28;20239;-57
2021/06/26 01:34:52;;;;;;;14.87;11.37;;;;;;;;;;5065917;28;20189;-58
2021/06/26 01:37:17;;;;;;;11.50;10.40;;;;;;;;;;5051699;28;20208;-57
2021/06/26 01:39:42;;;;;;;12.47;9.90;;;;;;;;;;5066674;28;20208;-58
2021/06/26 01:42:10;;;;;;;12.43;9.63;;;;;;;;;;5064518;28;20230;-58
2021/06/26 01:44:35;;;;;;;11.43;9.90;;;;;;;;;;5065070;28;20185;-59
2021/06/26 01:47:01;;;;;;;11.67;10.47;;;;;;;;;;5048696;28;20624;-59
2021/06/26 01:49:26;;;;;;;9.73;8.73;;;;;;;;;;5064495;28;20319;-58
2021/06/26 01:51:51;;;;;;;12.00;8.50;;;;;;;;;;5051846;28;20246;-56
2021/06/26 01:54:18;;;;;;;12.00;9.00;;;;;;;;;;5067666;28;20185;-59
2021/06/26 01:56:43;;;;;;;9.90;8.90;;;;;;;;;;5065825;28;20690;-58
2021/06/26 01:59:08;;;;;;;9.53;8.63;;;;;;;;;;5047731;28;20240;-58
2021/06/26 02:01:35;;;;;;;9.83;8.20;;;;;;;;;;5047855;28;20637;-59
2021/06/26 02:04:01;;;;;;;14.13;9.37;;;;;;;;;;5064859;28;20196;-57
2021/06/26 02:06:27;;;;;;;13.50;10.23;;;;;;;;;;5052722;28;20185;-58
2021/06/26 02:08:53;;;;;;;12.97;9.63;;;;;;;;;;5065983;28;20712;-58
2021/06/26 02:11:18;;;;;;;17.90;12.43;;;;;;;;;;5064186;28;20197;-58
2021/06/26 02:13:43;;;;;;;16.90;11.97;;;;;;;;;;5065253;28;20197;-58
2021/06/26 02:16:09;;;;;;;17.10;12.50;;;;;;;;;;5063938;28;20197;-58
2021/06/26 02:18:35;;;;;;;23.27;12.20;;;;;;;;;;5062367;28;20225;-58
2021/06/26 02:21:00;;;;;;;16.83;13.97;;;;;;;;;;5047784;28;20189;-57
2021/06/26 02:23:27;;;;;;;22.03;17.60;;;;;;;;;;5066699;28;20276;-59
2021/06/26 02:25:52;;;;;;;16.30;12.40;;;;;;;;;;5061619;28;20189;-59
2021/06/26 02:28:18;;;;;;;16.07;11.67;;;;;;;;;;5044970;28;20223;-55
2021/06/26 02:30:43;;;;;;;14.40;11.53;;;;;;;;;;5060112;28;20178;-57
2021/06/26 02:33:08;;;;;;;15.90;10.70;;;;;;;;;;5065788;28;20204;-58
2021/06/26 02:35:34;;;;;;;21.47;11.83;;;;;;;;;;5065093;28;20189;-57
2021/06/26 02:37:59;;;;;;;14.43;11.47;;;;;;;;;;5063953;28;20825;-58
2021/06/26 02:40:24;;;;;;;16.90;10.53;;;;;;;;;;5063991;28;20196;-58
2021/06/26 02:42:50;;;;;;;20.37;12.63;;;;;;;;;;5064358;28;20200;-58
2021/06/26 02:45:15;;;;;;;14.47;12.03;;;;;;;;;;5055516;28;20191;-57
2021/06/26 02:47:41;;;;;;;16.97;11.27;;;;;;;;;;5069231;28;20541;-59
2021/06/26 02:50:08;;;;;;;14.57;12.00;;;;;;;;;;5068269;28;20192;-57
2021/06/26 02:52:33;;;;;;;13.17;11.10;;;;;;;;;;5050172;28;20193;-58
2021/06/26 02:54:59;;;;;;;22.47;11.83;;;;;;;;;;5066387;28;20212;-58
2021/06/26 02:57:25;;;;;;;15.43;11.50;;;;;;;;;;5070778;28;20292;-58
2021/06/26 02:59:51;;;;;;;14.87;11.27;;;;;;;;;;5066195;28;20214;-58
2021/06/26 03:02:16;;;;;;;18.03;11.43;;;;;;;;;;5067473;28;20200;-59
2021/06/26 03:04:41;;;;;;;18.23;10.20;;;;;;;;;;5072104;28;20192;-57
2021/06/26 03:07:07;;;;;;;18.50;10.50;;;;;;;;;;5052422;28;20203;-57
2021/06/26 03:09:32;;;;;;;11.43;10.17;;;;;;;;;;5057807;28;20220;-57
2021/06/26 03:11:57;;;;;;;15.73;9.50;;;;;;;;;;5065759;28;20189;-58
2021/06/26 03:14:23;;;;;;;18.93;9.97;;;;;;;;;;5057652;28;20664;-56
2021/06/26 03:16:48;;;;;;;16.13;10.67;;;;;;;;;;5069087;28;20188;-58
2021/06/26 03:19:14;;;;;;;15.53;11.10;;;;;;;;;;5071926;28;20216;-57
2021/06/26 03:21:39;;;;;;;11.70;10.50;;;;;;;;;;5069680;28;20190;-58
2021/06/26 03:24:05;;;;;;;18.53;12.30;;;;;;;;;;5070435;28;20854;-58
2021/06/26 03:26:33;;;;;;;16.00;10.70;;;;;;;;;;5068460;28;20264;-58
2021/06/26 03:28:58;;;;;;;16.30;9.70;;;;;;;;;;5069782;28;20212;-59
2021/06/26 03:31:24;;;;;;;16.57;9.10;;;;;;;;;;5051508;28;20242;-57
2021/06/26 03:33:50;;;;;;;11.67;8.10;;;;;;;;;;5054662;28;20541;-58
2021/06/26 03:36:16;;;;;;;11.37;7.77;;;;;;;;;;5070829;28;20208;-58
2021/06/26 03:38:41;;;;;;;11.00;8.30;;;;;;;;;;5069466;28;20239;-58
2021/06/26 03:41:06;;;;;;;9.13;7.77;;;;;;;;;;5065817;28;20201;-58
2021/06/26 03:43:32;;;;;;;10.17;7.57;;;;;;;;;;5069411;28;20189;-56
2021/06/26 03:45:57;;;;;;;9.27;7.70;;;;;;;;;;5071066;28;20189;-56
2021/06/26 03:48:22;;;;;;;12.93;7.40;;;;;;;;;;5067876;28;20201;-56
2021/06/26 03:50:48;;;;;;;14.73;7.40;;;;;;;;;;5069242;28;20193;-58
2021/06/26 03:53:13;;;;;;;13.97;8.53;;;;;;;;;;5049656;28;20223;-58
2021/06/26 03:55:39;;;;;;;9.20;7.87;;;;;;;;;;5063440;28;20281;-58
2021/06/26 03:58:04;;;;;;;11.17;7.53;;;;;;;;;;5050732;28;20220;-59
2021/06/26 04:00:29;;;;;;;11.10;7.50;;;;;;;;;;5066310;28;20267;-59
2021/06/26 04:02:54;;;;;;;12.57;7.37;;;;;;;;;;5043998;28;20653;-59
2021/06/26 04:05:20;;;;;;;11.57;8.40;;;;;;;;;;5066958;28;20761;-59
2021/06/26 04:07:45;;;;;;;11.97;8.30;;;;;;;;;;5051667;28;20190;-58
2021/06/26 04:10:10;;;;;;;16.13;8.87;;;;;;;;;;5051205;28;20189;-57
2021/06/26 04:12:36;;;;;;;14.30;8.67;;;;;;;;;;5065232;28;20188;-58
2021/06/26 04:15:01;;;;;;;13.97;7.87;;;;;;;;;;5064275;28;20189;-58
2021/06/26 04:17:27;;;;;;;10.23;7.17;;;;;;;;;;5044876;28;20214;-58
2021/06/26 04:19:52;;;;;;;9.77;7.87;;;;;;;;;;5066244;28;20273;-58
2021/06/26 04:22:17;;;;;;;12.50;7.90;;;;;;;;;;5060044;28;20189;-58
2021/06/26 04:24:42;;;;;;;14.70;8.97;;;;;;;;;;5065287;28;20275;-58
2021/06/26 04:27:08;;;;;;;11.57;9.33;;;;;;;;;;5064695;28;20546;-57
2021/06/26 04:29:33;;;;;;;12.07;8.93;;;;;;;;;;5063646;28;20215;-57
2021/06/26 04:31:59;;;;;;;11.17;9.17;;;;;;;;;;5064774;28;20685;-58
2021/06/26 04:34:24;;;;;;;15.87;8.33;;;;;;;;;;5067112;28;20772;-58
2021/06/26 04:36:51;;;;;;;15.47;9.47;;;;;;;;;;5048671;28;20193;-58
2021/06/26 04:39:17;;;;;;;14.77;9.07;;;;;;;;;;5064478;28;20258;-58
2021/06/26 04:41:42;;;;;;;9.93;8.80;;;;;;;;;;5052023;28;20201;-58
2021/06/26 04:44:07;;;;;;;13.50;9.63;;;;;;;;;;5066270;28;20598;-58
2021/06/26 04:46:33;;;;;;;12.70;10.07;;;;;;;;;;5049296;28;20185;-58
2021/06/26 04:48:59;;;;;;;14.70;9.93;;;;;;;;;;5063498;28;20209;-58
2021/06/26 04:51:25;;;;;;;13.43;9.97;;;;;;;;;;5051067;28;20217;-57
2021/06/26 04:53:50;;;;;;;13.57;10.23;;;;;;;;;;5064004;28;20228;-57
2021/06/26 04:56:16;;;;;;;16.80;10.70;;;;;;;;;;5064130;28;20213;-58
2021/06/26 04:58:41;;;;;;;17.57;10.50;;;;;;;;;;5065645;28;20258;-57
2021/06/26 05:01:07;;;;;;;18.03;10.80;;;;;;;;;;5065613;28;20193;-58
2021/06/26 05:03:32;;;;;;;12.10;10.30;;;;;;;;;;5063236;28;20208;-58
2021/06/26 05:06:00;;;;;;;20.13;11.60;;;;;;;;;;5067036;28;20193;-58
2021/06/26 05:08:25;;;;;;;15.97;11.80;;;;;;;;;;5048222;28;20220;-60
2021/06/26 05:10:51;;;;;;;13.23;11.47;;;;;;;;;;5052352;28;20795;-58
2021/06/26 05:13:16;;;;;;;19.47;11.50;;;;;;;;;;5063089;28;20193;-58
2021/06/26 05:15:42;;;;;;;12.90;11.53;;;;;;;;;;5089575;22;20305;-67
2021/06/26 05:18:08;;;;;;;13.10;11.13;;;;;;;;;;5065395;28;20676;-67
2021/06/26 05:20:34;;;;;;;14.03;11.23;;;;;;;;;;5052975;28;20193;-67
2021/06/26 05:22:59;;;;;;;13.73;11.03;;;;;;;;;;5048161;28;20238;-66
2021/06/26 05:25:24;;;;;;;13.30;11.27;;;;;;;;;;5061523;28;20250;-65
2021/06/26 05:27:50;;;;;;;14.57;11.77;;;;;;;;;;5065233;28;20247;-65
2021/06/26 05:30:15;;;;;;;13.50;11.10;;;;;;;;;;5065163;28;20196;-67
2021/06/26 05:32:41;;;;;;;12.27;11.03;;;;;;;;;;5066935;28;20268;-66
2021/06/26 05:35:07;;;;;;;14.67;11.23;;;;;;;;;;5062995;28;20628;-66
2021/06/26 05:37:32;;;;;;;14.20;11.10;;;;;;;;;;5049867;28;20799;-66
2021/06/26 05:39:58;;;;;;;14.43;12.53;;;;;;;;;;5063438;28;20477;-66
2021/06/26 05:42:23;;;;;;;14.20;12.70;;;;;;;;;;5050098;28;20191;-67
2021/06/26 05:44:48;;;;;;;14.57;12.73;;;;;;;;;;5048262;28;20205;-67
2021/06/26 05:47:14;;;;;;;16.03;11.23;;;;;;;;;;5067382;28;20444;-66
2021/06/26 05:49:39;;;;;;;14.47;11.93;;;;;;;;;;5065923;28;20193;-66
2021/06/26 05:52:05;;;;;;;12.13;10.93;;;;;;;;;;5065484;28;20189;-66
2021/06/26 05:54:30;;;;;;;14.97;12.63;;;;;;;;;;5061513;28;20212;-67
2021/06/26 05:56:55;;;;;;;15.63;11.87;;;;;;;;;;5057331;28;20197;-66
2021/06/26 05:59:21;;;;;;;12.53;11.00;;;;;;;;;;5065021;28;20634;-67
2021/06/26 06:01:46;;;;;;;12.83;10.57;;;;;;;;;;5046865;28;20194;-68
2021/06/26 06:04:11;;;;;;;16.50;8.53;;;;;;;;;;5060246;28;20189;-66
2021/06/26 06:06:37;;;;;;;9.63;8.40;;;;;;;;;;5062565;28;20561;-67
2021/06/26 06:09:05;;;;;;;9.37;8.03;;;;;;;;;;5059860;28;20185;-67
2021/06/26 06:11:30;;;;;;;10.10;8.63;;;;;;;;;;5058538;28;20619;-65
2021/06/26 06:13:56;;;;;;;10.37;7.27;;;;;;;;;;5061018;28;20185;-66
2021/06/26 06:16:23;;;;;;;11.73;8.37;;;;;;;;;;5060313;28;20221;-67
2021/06/26 06:18:48;;;;;;;11.27;7.73;;;;;;;;;;5057907;28;20209;-66
2021/06/26 06:21:14;;;;;;;11.53;8.50;;;;;;;;;;5064920;28;20242;-68
2021/06/26 06:23:39;;;;;;;8.40;7.50;;;;;;;;;;5059320;28;20189;-67
2021/06/26 06:26:04;;;;;;;9.63;7.85;;;;;;;;;;5058490;28;20672;-66
2021/06/26 06:28:30;;;;;;;11.93;8.10;;;;;;;;;;5063902;28;20271;-68
2021/06/26 06:30:55;;;;;;;10.95;8.02;;;;;;;;;;5063759;28;20190;-67
2021/06/26 06:33:21;;;;;;;11.43;7.78;;;;;;;;;;5065688;28;20661;-65
2021/06/26 06:35:46;;;;;;;11.70;7.43;;;;;;;;;;5046624;28;20258;-67
2021/06/26 06:38:13;;;;;;;9.75;7.40;;;;;;;;;;5042842;28;20209;-67
2021/06/26 06:40:38;;;;;;;10.88;8.27;;;;;;;;;;5062844;28;20181;-66
2021/06/26 06:43:04;;;;;;;7.47;6.78;;;;;;;;;;5065394;28;20193;-66
2021/06/26 06:45:29;;;;;;;12.40;7.15;;;;;;;;;;5064329;28;20212;-65
2021/06/26 06:47:54;;;;;;;8.10;7.07;;;;;;;;;;5063278;28;20225;-65
2021/06/26 06:50:20;;;;;;;9.52;7.25;;;;;;;;;;5062831;28;20277;-64
2021/06/26 06:52:45;;;;;;;9.38;6.80;;;;;;;;;;5066041;28;20246;-66
2021/06/26 06:55:11;;;;;;;10.20;7.05;;;;;;;;;;5049375;28;20648;-66
2021/06/26 06:57:37;;;;;;;10.73;7.03;;;;;;;;;;5054159;28;20213;-63
2021/06/26 07:00:06;;;;;;;15.48;7.10;;;;;;;;;;5079255;28;20200;-65
2021/06/26 07:02:31;;;;;;;10.20;6.53;;;;;;;;;;5049935;28;20197;-64
2021/06/26 07:04:57;;;;;;;10.25;6.55;;;;;;;;;;5065521;28;20193;-66
2021/06/26 07:07:22;;;;;;;9.07;5.97;;;;;;;;;;5069609;28;20648;-65
2021/06/26 07:09:47;;;;;;;8.00;6.00;;;;;;;;;;5064828;28;20189;-65
2021/06/26 07:12:12;;;;;;;8.68;6.25;;;;;;;;;;5045043;28;20197;-65
2021/06/26 07:14:38;;;;;;;6.95;5.80;;;;;;;;;;5060718;28;20876;-65
2021/06/26 07:17:03;;;;;;;8.35;5.60;;;;;;;;;;5067559;28;20237;-64
2021/06/26 07:19:29;;;;;;;9.68;5.15;;;;;;;;;;5065504;28;21153;-64
2021/06/26 07:21:54;;;;;;;6.85;5.13;;;;;;;;;;5065721;28;20189;-65
2021/06/26 07:24:19;;;;;;;6.85;5.30;;;;;;;;;;5063740;28;20212;-63
2021/06/26 07:26:45;;;;;;;8.02;5.45;;;;;;;;;;5064215;28;20185;-66
2021/06/26 07:29:10;;;;;;;10.45;5.43;;;;;;;;;;5053191;28;20185;-68
2021/06/26 07:31:35;;;;;;;10.55;5.82;;;;;;;;;;5071942;28;20208;-68
2021/06/26 07:34:01;;;;;;;6.22;5.13;;;;;;;;;;5060950;28;20181;-67
2021/06/26 07:36:26;;;;;;;8.23;5.57;;;;;;;;;;5068561;28;20208;-66
2021/06/26 07:38:52;;;;;;;6.60;5.72;;;;;;;;;;5064676;28;20737;-67
2021/06/26 07:41:17;;;;;;;7.05;5.38;;;;;;;;;;5068621;28;20738;-66
2021/06/26 07:43:43;;;;;;;5.53;4.95;;;;;;;;;;5052921;28;20732;-67
2021/06/26 07:46:08;;;;;;;7.22;6.20;;;;;;;;;;5066396;28;20213;-68
2021/06/26 07:48:34;;;;;;;5.95;5.35;;;;;;;;;;5050693;28;20566;-68
2021/06/26 07:50:59;;;;;;;6.65;5.82;;;;;;;;;;5068172;28;20919;-68
2021/06/26 07:53:25;;;;;;;6.45;5.18;;;;;;;;;;5065601;28;20239;-67
2021/06/26 07:55:53;;;;;;;7.40;5.32;;;;;;;;;;5064647;28;20205;-67
2021/06/26 07:58:20;;;;;;;6.63;5.57;;;;;;;;;;5042592;28;20222;-67
2021/06/26 08:00:47;;;;;;;7.65;5.63;;;;;;;;;;5055184;28;20195;-66
2021/06/26 08:03:12;;;;;;;6.70;6.03;;;;;;;;;;5070172;28;20240;-66
2021/06/26 08:05:37;;;;;;;6.63;6.03;;;;;;;;;;5054942;28;20277;-64
2021/06/26 08:08:03;;;;;;;7.28;6.47;;;;;;;;;;5065155;28;20435;-65
2021/06/26 08:10:28;;;;;;;7.90;6.40;;;;;;;;;;5049219;28;20192;-65
2021/06/26 08:12:53;;;;;;;6.50;6.07;;;;;;;;;;5060726;28;20226;-64
2021/06/26 08:15:19;;;;;;;7.05;6.55;;;;;;;;;;5041208;28;20463;-65
2021/06/26 08:17:45;;;;;;;6.68;6.20;;;;;;;;;;5061736;28;20209;-63
2021/06/26 08:20:10;;;;;;;6.80;6.28;;;;;;;;;;5059097;28;20192;-65
2021/06/26 08:22:36;;;;;;;7.93;7.25;;;;;;;;;;5051883;28;20200;-64
2021/06/26 08:25:01;;;;;;;7.40;6.90;;;;;;;;;;5063781;28;20262;-65
2021/06/26 08:27:26;;;;;;;8.40;7.85;;;;;;;;;;5068279;28;20429;-64
2021/06/26 08:29:51;;;;;;;8.73;8.23;;;;;;;;;;5067027;28;20189;-63
2021/06/26 08:32:17;;;;;;;8.47;7.83;;;;;;;;;;5052778;28;20456;-65
2021/06/26 08:34:42;;;;;;;9.00;8.32;;;;;;;;;;5057821;28;20443;-65
2021/06/26 08:37:08;;;;;;;8.57;8.05;;;;;;;;;;5069980;28;20200;-65
2021/06/26 08:39:33;;;;;;;8.55;7.68;;;;;;;;;;5053593;28;20204;-65
2021/06/26 08:42:00;;;;;;;7.28;6.78;;;;;;;;;;5062914;28;20212;-64
2021/06/26 08:44:25;;;;;;;7.50;7.00;;;;;;;;;;5038805;28;20192;-64
2021/06/26 08:46:51;;;;;;;7.00;6.50;;;;;;;;;;5056713;28;21455;-64
2021/06/26 08:49:16;;;;;;;6.72;6.32;;;;;;;;;;5057271;28;20649;-66
2021/06/26 08:51:42;;;;;;;7.57;7.07;;;;;;;;;;5060338;28;20193;-64
2021/06/26 08:54:16;;;;;;;7.28;6.20;;;;;;;;;;5056475;28;20189;-65
2021/06/26 08:56:44;;;;;;;7.40;6.80;;;;;;;;;;5060657;28;20570;-65
2021/06/26 08:59:10;;;;;;;7.30;6.65;;;;;;;;;;5056917;28;20185;-66
2021/06/26 09:01:36;;;;;;;6.85;6.25;;;;;;;;;;5060723;28;20185;-65
2021/06/26 09:04:06;;;;;;;5.90;5.50;;;;;;;;;;5044444;28;20190;-65
2021/06/26 09:06:44;;;;;;;6.80;6.35;;;;;;;;;;5039619;28;20552;-65
2021/06/26 09:09:13;;;;;;;7.25;6.85;;;;;;;;;;5045786;28;20288;-65
2021/06/26 09:11:38;;;;;;;5.95;5.55;;;;;;;;;;5058436;28;20599;-65
2021/06/26 09:14:04;;;;;;;7.18;6.68;;;;;;;;;;5045022;28;20181;-68
2021/06/26 09:16:32;;;;;;;7.10;6.70;;;;;;;;;;5047142;28;20220;-67
2021/06/26 09:18:58;;;;;;;7.60;7.00;;;;;;;;;;5050256;28;20185;-66
2021/06/26 09:21:29;;;;;;;7.30;6.80;;;;;;;;;;5056700;28;20526;-67
2021/06/26 09:24:07;;;;;;;11.02;7.90;;;;;;;;;;5043987;28;20420;-65
2021/06/26 09:26:34;;;;;;;7.43;6.82;;;;;;;;;;5043722;28;20208;-66
2021/06/26 09:29:14;;;;;;;7.03;6.63;;;;;;;;;;5062420;28;20205;-66
2021/06/26 09:32:06;;;;;;;7.03;6.53;;;;;;;;;;5060648;28;20200;-67
2021/06/26 09:34:50;;;;;;;35.42;8.35;;;;;;;;;;5042932;28;20207;-67
2021/06/26 09:37:26;;;;;;;6.38;5.75;;;;;;;;;;5056824;28;20238;-68
2021/06/26 09:39:54;;;;;;;6.13;5.75;;;;;;;;;;5057584;28;20192;-66
2021/06/26 09:42:50;;;;;;;5.85;5.45;;;;;;;;;;5052826;28;20197;-65
2021/06/26 09:45:15;;;;;;;6.20;5.80;;;;;;;;;;5044064;28;20220;-66
2021/06/26 09:47:42;;;;;;;5.97;5.57;;;;;;;;;;5059455;28;20333;-68
2021/06/26 09:50:19;;;;;;;6.15;5.65;;;;;;;;;;5058684;28;20730;-67
2021/06/26 09:53:00;;;;;;;6.70;6.22;;;;;;;;;;5053947;28;20593;-66
2021/06/26 09:55:28;;;;;;;6.13;5.72;;;;;;;;;;5057556;28;20308;-65
2021/06/26 09:57:56;;;;;;;5.72;5.32;;;;;;;;;;5060515;28;20220;-67
2021/06/26 10:00:23;;;;;;;5.90;5.38;;;;;;;;;;5056820;28;20718;-65
2021/06/26 10:02:49;;;;;;;5.68;5.28;;;;;;;;;;5027313;28;20665;-66
2021/06/26 10:05:16;;;;;;;6.18;5.65;;;;;;;;;;5062011;28;20220;-64
2021/06/26 10:07:44;;;;;;;4.97;4.68;;;;;;;;;;5058105;28;20695;-66
2021/06/26 10:10:12;;;;;;;5.50;5.15;;;;;;;;;;5060371;28;20196;-65
2021/06/26 10:12:38;;;;;;;5.00;4.70;;;;;;;;;;5040750;28;20420;-65
2021/06/26 10:15:05;;;;;;;5.45;4.97;;;;;;;;;;5047175;28;20295;-66
2021/06/26 10:17:30;;;;;;;5.50;5.00;;;;;;;;;;5053787;28;20655;-65
2021/06/26 10:19:56;;;;;;;4.95;4.55;;;;;;;;;;5061340;28;20203;-64
2021/06/26 10:22:22;;;;;;;4.97;4.38;;;;;;;;;;5056759;28;20654;-66
2021/06/26 10:24:49;;;;;;;4.72;4.40;;;;;;;;;;5060014;28;20285;-64
2021/06/26 10:27:23;;;;;;;4.65;4.35;;;;;;;;;;5046730;28;20209;-63
2021/06/26 10:29:49;;;;;;;5.15;4.85;;;;;;;;;;5056855;28;20294;-65
2021/06/26 10:32:17;;;;;;;5.15;4.75;;;;;;;;;;5047601;28;20203;-64
2021/06/26 10:34:44;;;;;;;5.22;4.35;;;;;;;;;;5058314;28;20618;-66
2021/06/26 10:37:17;;;;;;;4.45;4.15;;;;;;;;;;5057580;28;20196;-67
2021/06/26 10:39:43;;;;;;;4.43;4.00;;;;;;;;;;5059170;28;20740;-65
2021/06/26 10:42:14;;;;;;;3.92;3.50;;;;;;;;;;5057691;28;20219;-65
2021/06/26 10:44:47;;;;;;;4.38;3.97;;;;;;;;;;5053207;28;20236;-67
2021/06/26 10:47:13;;;;;;;4.15;3.75;;;;;;;;;;5048150;28;20208;-63
2021/06/26 10:49:40;;;;;;;4.13;3.72;;;;;;;;;;5062371;28;20909;-65
2021/06/26 10:52:14;;;;;;;3.97;3.67;;;;;;;;;;5060528;28;20771;-65
2021/06/26 10:54:58;;;;;;;4.10;3.70;;;;;;;;;;5046223;28;20294;-65
2021/06/26 10:57:25;;;;;;;4.07;3.75;;;;;;;;;;5041968;28;20176;-65
2021/06/26 11:00:09;;;;;;;4.15;3.85;;;;;;;;;;5054038;28;20711;-66
2021/06/26 11:02:43;;;;;;;5.57;4.18;;;;;;;;;;5059387;28;20223;-65
2021/06/26 11:05:10;;;;;;;3.90;3.60;;;;;;;;;;5064868;28;20208;-66
2021/06/26 11:07:36;;;;;;;3.72;2.97;;;;;;;;;;5064878;28;20744;-65
2021/06/26 11:10:08;;;;;;;4.63;3.70;;;;;;;;;;5064453;28;20193;-62
2021/06/26 11:12:44;;;;;;;4.30;4.00;;;;;;;;;;5063177;28;20245;-63
2021/06/26 11:15:11;;;;;;;4.80;3.67;;;;;;;;;;5066737;28;20267;-63
2021/06/26 11:17:39;;;;;;;3.55;3.33;;;;;;;;;;5059848;28;20189;-64
2021/06/26 11:20:07;;;;;;;4.93;3.60;;;;;;;;;;5064768;28;20224;-65
2021/06/26 11:22:32;;;;;;;3.58;3.28;;;;;;;;;;5062008;28;20184;-65
2021/06/26 11:24:58;;;;;;;4.05;3.75;;;;;;;;;;5049290;28;20215;-67
2021/06/26 11:27:23;;;;;;;3.80;3.50;;;;;;;;;;5061043;28;20200;-65
2021/06/26 11:29:49;;;;;;;3.78;3.40;;;;;;;;;;5050185;28;20185;-65
2021/06/26 11:32:28;;;;;;;3.78;3.47;;;;;;;;;;5067782;28;20193;-65
2021/06/26 11:35:01;;;;;;;4.57;4.00;;;;;;;;;;5067501;28;20208;-66
2021/06/26 11:37:35;;;;;;;5.82;3.78;;;;;;;;;;5066024;28;20184;-67
2021/06/26 11:40:03;;;;;;;4.28;3.97;;;;;;;;;;5063637;28;20188;-67
2021/06/26 11:42:28;;;;;;;3.40;3.10;;;;;;;;;;5050868;28;20213;-66
2021/06/26 11:44:54;;;;;;;3.65;3.40;;;;;;;;;;5066290;28;20267;-65
2021/06/26 11:47:24;;;;;;;3.92;3.50;;;;;;;;;;5050757;28;20201;-67
2021/06/26 11:49:49;;;;;;;3.67;3.38;;;;;;;;;;5062663;28;20176;-65
2021/06/26 11:52:16;;;;;;;3.90;3.60;;;;;;;;;;5047142;28;20695;-66
2021/06/26 11:54:42;;;;;;;3.20;3.00;;;;;;;;;;5061683;28;20240;-67
2021/06/26 11:57:12;;;;;;;3.40;3.10;;;;;;;;;;5062718;28;20227;-67
2021/06/26 11:59:48;;;;;;;4.22;3.80;;;;;;;;;;5064980;28;20858;-67
2021/06/26 12:02:16;;;;;;;4.70;3.72;;;;;;;;;;5061288;28;20188;-66
2021/06/26 12:04:42;;;;;;;4.90;3.78;;;;;;;;;;5044086;28;20224;-66
2021/06/26 12:07:09;;;;;;;5.25;3.67;;;;;;;;;;5051302;28;20189;-66
2021/06/26 12:09:35;;;;;;;3.75;3.30;;;;;;;;;;5068534;28;20185;-66
2021/06/26 12:12:01;;;;;;;3.60;3.30;;;;;;;;;;5069100;28;20220;-65
2021/06/26 12:14:28;;;;;;;3.78;3.50;;;;;;;;;;5054504;28;20221;-66
2021/06/26 12:17:02;;;;;;;4.50;3.80;;;;;;;;;;5049210;28;20237;-66
2021/06/26 12:19:30;;;;;;;3.75;3.45;;;;;;;;;;5063915;28;20194;-67
2021/06/26 12:21:56;;;;;;;5.93;3.83;;;;;;;;;;5050134;28;20224;-67
2021/06/26 12:24:35;;;;;;;3.53;3.22;;;;;;;;;;5067529;28;20177;-68
2021/06/26 12:27:18;;;;;;;3.55;3.35;;;;;;;;;;5066295;28;20204;-68
2021/06/26 12:29:52;;;;;;;4.03;3.63;;;;;;;;;;5046715;28;20194;-66
2021/06/26 12:32:31;;;;;;;4.97;3.33;;;;;;;;;;5065394;28;20193;-67
2021/06/26 12:34:57;;;;;;;3.95;3.35;;;;;;;;;;5063909;28;20213;-67
2021/06/26 12:37:31;;;;;;;5.47;3.88;;;;;;;;;;5052080;28;20233;-66
2021/06/26 12:40:06;;;;;;;4.15;3.20;;;;;;;;;;5059272;28;20185;-67
2021/06/26 12:42:35;;;;;;;3.50;3.20;;;;;;;;;;5067744;28;20185;-67
2021/06/26 12:45:01;;;;;;;4.30;4.00;;;;;;;;;;5048950;28;20216;-66
2021/06/26 12:47:26;;;;;;;3.42;3.10;;;;;;;;;;5065458;28;20740;-67
2021/06/26 12:50:08;;;;;;;3.60;3.30;;;;;;;;;;5067699;28;20545;-65
2021/06/26 12:52:33;;;;;;;6.20;3.38;;;;;;;;;;5054204;28;20269;-60
2021/06/26 12:54:58;;;;;;;3.63;3.28;;;;;;;;;;5067236;28;20237;-64
2021/06/26 12:57:24;;;;;;;3.25;3.05;;;;;;;;;;5064896;28;20196;-61
2021/06/26 12:59:49;;;;;;;2.83;2.63;;;;;;;;;;5060907;28;20271;-63
2021/06/26 13:02:14;;;;;;;3.67;2.83;;;;;;;;;;5063751;28;20887;-63
2021/06/26 13:04:50;;;;;;;3.22;2.92;;;;;;;;;;5065596;28;20204;-63
2021/06/26 13:07:23;;;;;;;3.03;2.72;;;;;;;;;;5070867;28;20278;-63
2021/06/26 13:09:53;;;;;;;3.67;2.58;;;;;;;;;;5065519;28;20188;-63
2021/06/26 13:12:20;;;;;;;4.32;3.10;;;;;;;;;;5064915;28;20312;-63
2021/06/26 13:14:48;;;;;;;3.08;2.60;;;;;;;;;;5067186;28;20215;-63
2021/06/26 13:17:15;;;;;;;2.83;2.55;;;;;;;;;;5066991;28;20181;-63
2021/06/26 13:19:40;;;;;;;2.97;2.72;;;;;;;;;;5065173;28;20268;-63
2021/06/26 13:22:06;;;;;;;3.55;2.92;;;;;;;;;;5060882;28;20717;-63
2021/06/26 13:24:33;;;;;;;3.20;2.90;;;;;;;;;;5047537;28;20209;-62
2021/06/26 13:26:59;;;;;;;3.15;2.90;;;;;;;;;;5065495;28;20192;-63
2021/06/26 13:29:24;;;;;;;3.50;2.88;;;;;;;;;;5064000;28;20185;-64
2021/06/26 13:31:50;;;;;;;5.68;3.05;;;;;;;;;;5031990;28;20225;-64
2021/06/26 13:34:16;;;;;;;3.38;3.08;;;;;;;;;;5064542;28;20192;-64
2021/06/26 13:36:41;;;;;;;3.33;3.08;;;;;;;;;;5065423;28;20274;-64
2021/06/26 13:39:07;;;;;;;4.15;3.03;;;;;;;;;;5068347;28;20208;-64
2021/06/26 13:41:33;;;;;;;2.88;2.63;;;;;;;;;;5060493;28;20270;-64
2021/06/26 13:43:59;;;;;;;2.92;2.70;;;;;;;;;;5038673;28;20209;-64
2021/06/26 13:46:25;;;;;;;4.35;2.55;;;;;;;;;;5057670;28;20220;-64
2021/06/26 13:48:50;;;;;;;4.35;3.25;;;;;;;;;;5063106;28;20208;-64
2021/06/26 13:51:15;;;;;;;3.97;2.65;;;;;;;;;;5050196;28;20570;-64
2021/06/26 13:53:41;;;;;;;2.97;2.70;;;;;;;;;;5053016;28;20186;-64
2021/06/26 13:56:06;;;;;;;3.22;2.78;;;;;;;;;;5061350;28;20709;-64
2021/06/26 13:58:31;;;;;;;4.95;2.38;;;;;;;;;;5053232;28;20222;-64
2021/06/26 14:00:58;;;;;;;2.78;2.50;;;;;;;;;;5060315;28;20648;-65
2021/06/26 14:03:23;;;;;;;3.65;2.78;;;;;;;;;;5044986;28;20635;-63
2021/06/26 14:05:48;;;;;;;2.58;2.47;;;;;;;;;;5048738;28;20347;-65
2021/06/26 14:08:14;;;;;;;3.00;2.72;;;;;;;;;;5053645;28;20208;-64
2021/06/26 14:10:40;;;;;;;2.53;2.40;;;;;;;;;;5049611;28;20272;-64
2021/06/26 14:13:09;;;;;;;3.47;2.88;;;;;;;;;;5048224;28;20668;-64
2021/06/26 14:15:34;;;;;;;2.78;2.60;;;;;;;;;;5047708;28;20208;-63
2021/06/26 14:18:00;;;;;;;3.28;2.97;;;;;;;;;;5046880;28;20200;-63
2021/06/26 14:20:26;;;;;;;6.13;3.30;;;;;;;;;;5045726;28;20234;-63
2021/06/26 14:22:52;;;;;;;3.40;2.67;;;;;;;;;;5066677;28;20278;-64
2021/06/26 14:25:18;;;;;;;3.10;2.80;;;;;;;;;;5064343;28;20339;-63
2021/06/26 14:27:44;;;;;;;3.13;2.83;;;;;;;;;;5063936;28;20239;-63
2021/06/26 14:30:10;;;;;;;3.22;3.03;;;;;;;;;;5065996;28;20200;-63
2021/06/26 14:32:36;;;;;;;4.47;3.85;;;;;;;;;;5062246;28;20192;-64